sensor_id;sensor_type;location;lat;lon;timestamp;P1;durP1;ratioP1;P2;durP2;ratioP2
7729;SDS011;3908;52.310;7.230;2024-03-02T08:44:10;15.40;;;14.50;;
7729;SDS011;3908;52.310;7.230;2024-03-02T08:49:32;14.40;;;13.53;;
7729;SDS011;3908;52.310;7.230;2024-03-02T14:10:38;8.60;;;8.17;;
7729;SDS011;3908;52.310;7.230;2024-03-02T14:13:26;7.97;;;7.57;;
7729;SDS011;3908;52.310;7.230;2024-03-02T14:16:13;9.27;;;8.77;;
7729;SDS011;3908;52.310;7.230;2024-03-02T14:19:00;10.37;;;9.67;;
7729;SDS011;3908;52.310;7.230;2024-03-02T14:21:49;8.90;;;8.43;;
7729;SDS011;3908;52.310;7.230;2024-03-02T14:24:36;10.70;;;10.07;;
7729;SDS011;3908;52.310;7.230;2024-03-02T14:27:25;12.23;;;11.63;;
7729;SDS011;3908;52.310;7.230;2024-03-02T14:30:12;12.60;;;11.90;;
7729;SDS011;3908;52.310;7.230;2024-03-02T14:33:00;9.57;;;9.03;;
7729;SDS011;3908;52.310;7.230;2024-03-02T14:35:47;8.70;;;8.10;;
7729;SDS011;3908;52.310;7.230;2024-03-02T14:38:34;7.67;;;7.03;;
7729;SDS011;3908;52.310;7.230;2024-03-02T14:41:21;8.43;;;7.93;;
7729;SDS011;3908;52.310;7.230;2024-03-02T14:44:11;6.07;;;5.70;;
7729;SDS011;3908;52.310;7.230;2024-03-02T14:46:58;6.43;;;6.13;;
7729;SDS011;3908;52.310;7.230;2024-03-02T14:49:45;5.03;;;4.80;;
7729;SDS011;3908;52.310;7.230;2024-03-02T14:52:32;4.10;;;3.90;;
7729;SDS011;3908;52.310;7.230;2024-03-02T14:55:19;4.20;;;3.80;;
7729;SDS011;3908;52.310;7.230;2024-03-02T14:58:07;4.73;;;4.43;;
7729;SDS011;3908;52.310;7.230;2024-03-02T15:00:56;6.77;;;6.37;;
7729;SDS011;3908;52.310;7.230;2024-03-02T15:03:44;7.70;;;7.30;;
7729;SDS011;3908;52.310;7.230;2024-03-02T15:06:31;9.47;;;8.87;;
7729;SDS011;3908;52.310;7.230;2024-03-02T15:09:18;12.03;;;11.43;;
7729;SDS011;3908;52.310;7.230;2024-03-02T15:12:05;9.30;;;8.80;;
7729;SDS011;3908;52.310;7.230;2024-03-02T15:14:55;8.23;;;7.73;;
7729;SDS011;3908;52.310;7.230;2024-03-02T15:17:44;9.20;;;8.73;;
7729;SDS011;3908;52.310;7.230;2024-03-02T15:20:31;10.37;;;9.83;;
7729;SDS011;3908;52.310;7.230;2024-03-02T15:23:18;9.67;;;9.17;;
7729;SDS011;3908;52.310;7.230;2024-03-02T15:26:05;10.80;;;10.30;;
7729;SDS011;3908;52.310;7.230;2024-03-02T15:28:55;13.10;;;12.50;;
7729;SDS011;3908;52.310;7.230;2024-03-02T15:31:44;12.67;;;12.07;;
7729;SDS011;3908;52.310;7.230;2024-03-02T15:34:32;13.50;;;12.90;;
7729;SDS011;3908;52.310;7.230;2024-03-02T15:37:20;13.10;;;12.43;;
7729;SDS011;3908;52.310;7.230;2024-03-02T15:40:07;10.77;;;10.27;;
7729;SDS011;3908;52.310;7.230;2024-03-02T15:42:56;8.83;;;8.43;;
7729;SDS011;3908;52.310;7.230;2024-03-02T15:45:43;9.73;;;9.30;;
7729;SDS011;3908;52.310;7.230;2024-03-02T15:48:30;15.90;;;15.17;;
7729;SDS011;3908;52.310;7.230;2024-03-02T15:51:19;16.80;;;16.00;;
7729;SDS011;3908;52.310;7.230;2024-03-02T15:54:06;16.63;;;15.93;;
7729;SDS011;3908;52.310;7.230;2024-03-02T15:56:54;18.23;;;17.43;;
7729;SDS011;3908;52.310;7.230;2024-03-02T15:59:41;25.47;;;24.27;;
7729;SDS011;3908;52.310;7.230;2024-03-02T16:02:28;21.70;;;20.60;;
7729;SDS011;3908;52.310;7.230;2024-03-02T16:05:15;31.50;;;30.10;;
7729;SDS011;3908;52.310;7.230;2024-03-02T16:08:05;27.17;;;26.00;;
7729;SDS011;3908;52.310;7.230;2024-03-02T16:10:53;25.60;;;24.30;;
7729;SDS011;3908;52.310;7.230;2024-03-02T16:13:40;23.23;;;22.17;;
7729;SDS011;3908;52.310;7.230;2024-03-02T16:16:27;24.73;;;23.63;;
7729;SDS011;3908;52.310;7.230;2024-03-02T16:19:14;26.47;;;25.27;;
7729;SDS011;3908;52.310;7.230;2024-03-02T16:22:01;24.90;;;23.80;;
7729;SDS011;3908;52.310;7.230;2024-03-02T16:24:53;24.90;;;23.63;;
7729;SDS011;3908;52.310;7.230;2024-03-02T16:27:40;25.17;;;24.07;;
7729;SDS011;3908;52.310;7.230;2024-03-02T16:30:27;25.73;;;24.60;;
7729;SDS011;3908;52.310;7.230;2024-03-02T16:33:14;23.47;;;22.47;;
7729;SDS011;3908;52.310;7.230;2024-03-02T16:36:02;25.73;;;24.63;;
7729;SDS011;3908;52.310;7.230;2024-03-02T16:38:49;26.43;;;25.30;;
7729;SDS011;3908;52.310;7.230;2024-03-02T16:41:38;22.17;;;21.17;;
7729;SDS011;3908;52.310;7.230;2024-03-02T16:44:28;21.07;;;20.10;;
7729;SDS011;3908;52.310;7.230;2024-03-02T16:47:15;17.23;;;16.43;;
7729;SDS011;3908;52.310;7.230;2024-03-02T16:50:02;15.63;;;14.87;;
7729;SDS011;3908;52.310;7.230;2024-03-02T16:52:53;16.63;;;15.73;;
7729;SDS011;3908;52.310;7.230;2024-03-02T16:55:40;12.77;;;12.20;;
7729;SDS011;3908;52.310;7.230;2024-03-02T16:58:29;10.80;;;10.30;;
7729;SDS011;3908;52.310;7.230;2024-03-02T17:01:16;9.43;;;9.03;;
7729;SDS011;3908;52.310;7.230;2024-03-02T17:04:03;9.67;;;9.07;;
7729;SDS011;3908;52.310;7.230;2024-03-02T17:06:51;9.30;;;8.80;;
7729;SDS011;3908;52.310;7.230;2024-03-02T17:09:38;8.40;;;8.00;;
7729;SDS011;3908;52.310;7.230;2024-03-02T17:12:26;8.60;;;8.10;;
7729;SDS011;3908;52.310;7.230;2024-03-02T17:15:14;8.57;;;8.13;;
7729;SDS011;3908;52.310;7.230;2024-03-02T17:18:01;10.67;;;9.97;;
7729;SDS011;3908;52.310;7.230;2024-03-02T17:20:48;9.83;;;9.33;;
7729;SDS011;3908;52.310;7.230;2024-03-02T17:23:35;10.03;;;9.53;;
7729;SDS011;3908;52.310;7.230;2024-03-02T17:26:23;8.63;;;8.13;;
7729;SDS011;3908;52.310;7.230;2024-03-02T17:29:10;8.83;;;8.43;;
7729;SDS011;3908;52.310;7.230;2024-03-02T17:31:58;8.93;;;8.53;;
7729;SDS011;3908;52.310;7.230;2024-03-02T17:34:45;9.83;;;9.40;;
7729;SDS011;3908;52.310;7.230;2024-03-02T17:37:33;9.23;;;8.47;;
7729;SDS011;3908;52.310;7.230;2024-03-02T17:40:22;9.20;;;8.80;;
7729;SDS011;3908;52.310;7.230;2024-03-02T17:43:10;9.07;;;8.60;;
7729;SDS011;3908;52.310;7.230;2024-03-02T17:45:58;8.10;;;7.70;;
7729;SDS011;3908;52.310;7.230;2024-03-02T17:48:46;8.73;;;8.20;;
7729;SDS011;3908;52.310;7.230;2024-03-02T17:51:33;7.80;;;7.30;;
7729;SDS011;3908;52.310;7.230;2024-03-02T17:54:21;8.00;;;7.60;;
7729;SDS011;3908;52.310;7.230;2024-03-02T17:57:08;6.97;;;6.67;;
7729;SDS011;3908;52.310;7.230;2024-03-02T17:59:55;6.27;;;5.97;;
7729;SDS011;3908;52.310;7.230;2024-03-02T18:02:42;6.70;;;6.33;;
7729;SDS011;3908;52.310;7.230;2024-03-02T18:05:31;6.23;;;5.93;;
7729;SDS011;3908;52.310;7.230;2024-03-02T18:08:18;6.43;;;6.13;;
7729;SDS011;3908;52.310;7.230;2024-03-02T18:11:06;6.57;;;6.23;;
7729;SDS011;3908;52.310;7.230;2024-03-02T18:13:53;7.33;;;6.73;;
7729;SDS011;3908;52.310;7.230;2024-03-02T18:16:40;6.90;;;6.50;;
7729;SDS011;3908;52.310;7.230;2024-03-02T18:19:27;5.60;;;5.30;;
7729;SDS011;3908;52.310;7.230;2024-03-02T18:22:18;6.83;;;6.40;;
7729;SDS011;3908;52.310;7.230;2024-03-02T18:25:06;7.77;;;7.27;;
7729;SDS011;3908;52.310;7.230;2024-03-02T18:27:54;7.93;;;7.40;;
7729;SDS011;3908;52.310;7.230;2024-03-02T18:30:41;9.63;;;9.13;;
7729;SDS011;3908;52.310;7.230;2024-03-02T18:33:28;11.10;;;10.50;;
7729;SDS011;3908;52.310;7.230;2024-03-02T18:36:15;13.27;;;12.57;;
7729;SDS011;3908;52.310;7.230;2024-03-02T18:39:04;14.60;;;13.90;;
7729;SDS011;3908;52.310;7.230;2024-03-02T18:41:52;14.93;;;14.20;;
7729;SDS011;3908;52.310;7.230;2024-03-02T18:44:39;14.87;;;14.00;;
7729;SDS011;3908;52.310;7.230;2024-03-02T18:47:26;15.77;;;14.97;;
7729;SDS011;3908;52.310;7.230;2024-03-02T18:50:14;14.40;;;13.50;;
7729;SDS011;3908;52.310;7.230;2024-03-02T18:53:01;14.73;;;13.83;;
7729;SDS011;3908;52.310;7.230;2024-03-02T18:55:49;14.17;;;13.37;;
7729;SDS011;3908;52.310;7.230;2024-03-02T18:58:36;13.63;;;12.73;;
7729;SDS011;3908;52.310;7.230;2024-03-02T19:01:23;13.03;;;12.23;;
7729;SDS011;3908;52.310;7.230;2024-03-02T19:04:10;12.10;;;11.37;;
7729;SDS011;3908;52.310;7.230;2024-03-02T19:06:57;12.07;;;11.37;;
7729;SDS011;3908;52.310;7.230;2024-03-02T19:09:44;11.27;;;10.67;;
7729;SDS011;3908;52.310;7.230;2024-03-02T19:12:33;13.60;;;12.77;;
7729;SDS011;3908;52.310;7.230;2024-03-02T19:15:20;12.73;;;12.00;;
7729;SDS011;3908;52.310;7.230;2024-03-02T19:18:07;14.93;;;14.13;;
7729;SDS011;3908;52.310;7.230;2024-03-02T19:20:54;15.17;;;14.10;;
7729;SDS011;3908;52.310;7.230;2024-03-02T19:23:42;13.47;;;12.70;;
7729;SDS011;3908;52.310;7.230;2024-03-02T19:26:29;12.93;;;12.10;;
7729;SDS011;3908;52.310;7.230;2024-03-02T19:29:17;13.43;;;12.43;;
7729;SDS011;3908;52.310;7.230;2024-03-02T19:32:04;13.00;;;12.27;;
7729;SDS011;3908;52.310;7.230;2024-03-02T19:34:51;12.37;;;11.67;;
7729;SDS011;3908;52.310;7.230;2024-03-02T19:37:39;12.20;;;11.50;;
7729;SDS011;3908;52.310;7.230;2024-03-02T19:40:26;13.60;;;12.60;;
7729;SDS011;3908;52.310;7.230;2024-03-02T19:43:13;12.77;;;11.87;;
7729;SDS011;3908;52.310;7.230;2024-03-02T19:46:04;12.67;;;11.90;;
7729;SDS011;3908;52.310;7.230;2024-03-02T19:48:51;11.50;;;10.63;;
7729;SDS011;3908;52.310;7.230;2024-03-02T19:51:39;11.43;;;10.73;;
7729;SDS011;3908;52.310;7.230;2024-03-02T19:54:26;11.30;;;10.50;;
7729;SDS011;3908;52.310;7.230;2024-03-02T19:57:13;12.00;;;11.17;;
7729;SDS011;3908;52.310;7.230;2024-03-02T20:00:00;11.83;;;11.03;;
7729;SDS011;3908;52.310;7.230;2024-03-02T20:02:49;10.70;;;10.03;;
7729;SDS011;3908;52.310;7.230;2024-03-02T20:05:36;9.43;;;8.67;;
7729;SDS011;3908;52.310;7.230;2024-03-02T20:08:24;10.10;;;9.50;;
7729;SDS011;3908;52.310;7.230;2024-03-02T20:11:11;10.87;;;10.20;;
7729;SDS011;3908;52.310;7.230;2024-03-02T20:13:58;11.27;;;10.67;;
7729;SDS011;3908;52.310;7.230;2024-03-02T20:16:46;11.07;;;10.23;;
7729;SDS011;3908;52.310;7.230;2024-03-02T20:19:37;10.83;;;10.03;;
7729;SDS011;3908;52.310;7.230;2024-03-02T20:22:24;9.93;;;9.33;;
7729;SDS011;3908;52.310;7.230;2024-03-02T20:25:11;9.30;;;8.77;;
7729;SDS011;3908;52.310;7.230;2024-03-02T20:28:00;9.00;;;8.40;;
7729;SDS011;3908;52.310;7.230;2024-03-02T20:30:49;10.17;;;9.57;;
7729;SDS011;3908;52.310;7.230;2024-03-02T20:33:36;10.57;;;9.77;;
7729;SDS011;3908;52.310;7.230;2024-03-02T20:36:24;8.30;;;7.80;;
7729;SDS011;3908;52.310;7.230;2024-03-02T20:39:11;10.17;;;9.53;;
7729;SDS011;3908;52.310;7.230;2024-03-02T20:41:58;9.87;;;9.17;;
7729;SDS011;3908;52.310;7.230;2024-03-02T20:44:46;8.77;;;8.07;;
7729;SDS011;3908;52.310;7.230;2024-03-02T20:47:33;9.70;;;9.03;;
7729;SDS011;3908;52.310;7.230;2024-03-02T20:50:20;9.63;;;9.03;;
7729;SDS011;3908;52.310;7.230;2024-03-02T20:53:08;9.60;;;8.90;;
7729;SDS011;3908;52.310;7.230;2024-03-02T20:55:55;8.27;;;7.67;;
7729;SDS011;3908;52.310;7.230;2024-03-02T20:58:42;9.90;;;8.90;;
7729;SDS011;3908;52.310;7.230;2024-03-02T21:01:30;9.60;;;8.90;;
7729;SDS011;3908;52.310;7.230;2024-03-02T21:04:17;10.17;;;9.53;;
7729;SDS011;3908;52.310;7.230;2024-03-02T21:07:04;10.57;;;9.77;;
7729;SDS011;3908;52.310;7.230;2024-03-02T21:09:52;9.53;;;8.93;;
7729;SDS011;3908;52.310;7.230;2024-03-02T21:12:42;10.03;;;9.30;;
7729;SDS011;3908;52.310;7.230;2024-03-02T21:15:29;10.67;;;9.77;;
7729;SDS011;3908;52.310;7.230;2024-03-02T21:18:16;10.67;;;9.83;;
7729;SDS011;3908;52.310;7.230;2024-03-02T21:21:04;10.43;;;9.63;;
7729;SDS011;3908;52.310;7.230;2024-03-02T21:23:52;10.57;;;9.77;;
7729;SDS011;3908;52.310;7.230;2024-03-02T21:26:40;9.73;;;9.03;;
7729;SDS011;3908;52.310;7.230;2024-03-02T21:29:28;11.67;;;10.77;;
7729;SDS011;3908;52.310;7.230;2024-03-02T21:32:15;10.43;;;9.53;;
7729;SDS011;3908;52.310;7.230;2024-03-02T21:35:04;10.53;;;9.70;;
7729;SDS011;3908;52.310;7.230;2024-03-02T21:37:51;10.90;;;9.90;;
7729;SDS011;3908;52.310;7.230;2024-03-02T21:40:38;11.13;;;10.07;;
7729;SDS011;3908;52.310;7.230;2024-03-02T21:43:27;10.30;;;9.50;;
7729;SDS011;3908;52.310;7.230;2024-03-02T21:46:16;11.73;;;9.63;;
7729;SDS011;3908;52.310;7.230;2024-03-02T21:49:03;10.77;;;9.73;;
7729;SDS011;3908;52.310;7.230;2024-03-02T21:51:51;10.27;;;9.47;;
7729;SDS011;3908;52.310;7.230;2024-03-02T21:54:39;10.47;;;9.47;;
7729;SDS011;3908;52.310;7.230;2024-03-02T21:57:26;10.90;;;10.00;;
7729;SDS011;3908;52.310;7.230;2024-03-02T22:00:15;10.20;;;9.40;;
7729;SDS011;3908;52.310;7.230;2024-03-02T22:03:03;10.63;;;9.53;;
7729;SDS011;3908;52.310;7.230;2024-03-02T22:05:51;10.43;;;9.53;;
7729;SDS011;3908;52.310;7.230;2024-03-02T22:08:38;10.33;;;9.47;;
7729;SDS011;3908;52.310;7.230;2024-03-02T22:11:25;10.07;;;9.17;;
7729;SDS011;3908;52.310;7.230;2024-03-02T22:14:12;9.70;;;8.83;;
7729;SDS011;3908;52.310;7.230;2024-03-02T22:17:04;12.17;;;10.03;;
7729;SDS011;3908;52.310;7.230;2024-03-02T22:19:52;9.90;;;9.00;;
7729;SDS011;3908;52.310;7.230;2024-03-02T22:22:39;10.83;;;9.73;;
7729;SDS011;3908;52.310;7.230;2024-03-02T22:25:26;8.83;;;8.13;;
7729;SDS011;3908;52.310;7.230;2024-03-02T22:28:13;10.00;;;9.07;;
7729;SDS011;3908;52.310;7.230;2024-03-02T22:31:00;9.97;;;9.13;;
7729;SDS011;3908;52.310;7.230;2024-03-02T22:33:49;11.07;;;9.97;;
7729;SDS011;3908;52.310;7.230;2024-03-02T22:36:36;9.07;;;8.23;;
7729;SDS011;3908;52.310;7.230;2024-03-02T22:39:23;9.67;;;8.70;;
7729;SDS011;3908;52.310;7.230;2024-03-02T22:42:10;9.40;;;8.53;;
7729;SDS011;3908;52.310;7.230;2024-03-02T22:44:57;10.03;;;9.03;;
7729;SDS011;3908;52.310;7.230;2024-03-02T22:47:44;8.50;;;7.63;;
7729;SDS011;3908;52.310;7.230;2024-03-02T22:50:32;9.90;;;8.87;;
7729;SDS011;3908;52.310;7.230;2024-03-02T22:53:19;9.63;;;8.60;;
